Time;durP1;ratioP1;P1;durP2;ratioP2;P2;SDS_P1;SDS_P2;PMS_P1;PMS_P2;Temp;Humidity;BMP_temperature;BMP_pressure;BME280_temperature;BME280_humidity;BME280_pressure;Samples;Min_cycle;Max_cycle;Signal;HPM_P1;HPM_P2
2021/10/08 00:00:06;;;;;;;;;;;;;;;8.89;83.99;97977.41;30001;983;1885;-61
2021/10/08 00:00:37;;;;;;;;;;;;;;;8.89;83.91;97978.22;30001;982;1880;-61
2021/10/08 00:01:08;;;;;;;;;;;;;;;8.90;84.07;97984.44;30001;982;1884;-61
2021/10/08 00:01:38;;;;;;;;;;;;;;;8.89;84.14;97977.41;30001;982;1880;-60
2021/10/08 00:02:09;;;;;;;;;;;;;;;8.88;84.16;97973.06;30001;982;1859;-60
2021/10/08 00:02:40;;;;;;;;;;;;;;;8.87;83.93;97974.13;30001;982;1880;-61
2021/10/08 00:03:11;;;;;;;;;;;;;;;8.88;84.09;97975.75;30001;983;1884;-61
2021/10/08 00:03:42;;;;;;;;;;;;;;;8.88;83.99;97975.75;30001;983;1880;-61
2021/10/08 00:04:13;;;;;;;;;;;;;;;8.88;83.94;97975.75;30001;983;1884;-62
2021/10/08 00:04:44;;;;;;;;;;;;;;;8.88;83.81;97970.34;30001;983;1880;-61
2021/10/08 00:05:14;;;;;;;;;;;;;;;8.89;83.80;97972.00;30001;983;1858;-61
2021/10/08 00:05:45;;;;;;;;;;;;;;;8.88;83.93;97975.75;30001;983;1880;-61
2021/10/08 00:06:16;;;;;;;;;;;;;;;8.88;83.76;97970.34;30001;983;1884;-60
2021/10/08 00:06:47;;;;;;;;;;;;;;;8.87;83.45;97977.66;30001;983;1880;-62
2021/10/08 00:07:17;;;;;;;;;;;;;;;8.88;83.60;97981.19;30001;983;1858;-60
2021/10/08 00:07:48;;;;;;;;;;;;;;;8.86;83.50;97978.72;30001;983;1880;-61
2021/10/08 00:08:19;;;;;;;;;;;;;;;8.86;83.69;97972.50;30001;982;1885;-61
2021/10/08 00:08:50;;;;;;;;;;;;;;;8.87;83.70;97976.84;30001;982;1880;-61
2021/10/08 00:09:22;;;;;;;;;;;;;;;8.86;83.86;97983.31;30001;982;1885;-61
2021/10/08 00:09:53;;;;;;;;;;;;;;;8.85;84.27;97974.37;30001;982;1880;-60
2021/10/08 00:10:24;;;;;;;;;;;;;;;8.85;84.15;97971.69;30001;982;1885;-62
2021/10/08 00:10:55;;;;;;;;;;;;;;;8.85;84.16;97976.28;30001;983;1880;-61
2021/10/08 00:11:27;;;;;;;;;;;;;;;8.84;84.18;97970.03;30001;983;1857;-61
2021/10/08 00:11:57;;;;;;;;;;;;;;;8.83;84.62;97970.28;30001;983;1880;-61
2021/10/08 00:12:28;;;;;;;;;;;;;;;8.82;84.28;97971.38;30001;983;1884;-63
2021/10/08 00:12:59;;;;;;;;;;;;;;;8.81;84.57;97973.25;30001;983;1880;-61
2021/10/08 00:13:30;;;;;;;;;;;;;;;8.80;84.30;97968.91;30001;983;1884;-60
2021/10/08 00:14:01;;;;;;;;;;;;;;;8.79;84.36;97974.56;30001;983;1880;-60
2021/10/08 00:14:32;;;;;;;;;;;;;;;8.78;84.10;97970.25;30001;983;1885;-60
2021/10/08 00:15:03;;;;;;;;;;;;;;;8.78;84.10;97975.66;30001;983;1880;-60
2021/10/08 00:15:34;;;;;;;;;;;;;;;8.78;84.19;97972.94;30001;983;1884;-61
2021/10/08 00:16:05;;;;;;;;;;;;;;;8.77;84.49;97968.59;30001;982;1881;-61
2021/10/08 00:16:36;;;;;;;;;;;;;;;8.76;84.42;97975.91;30001;982;1858;-61
2021/10/08 00:17:09;;;;;;;;;;;;;;;8.76;84.21;97972.38;30001;982;1881;-61
2021/10/08 00:17:40;;;;;;;;;;;;;;;8.74;84.10;97968.03;30001;982;1885;-61
2021/10/08 00:18:10;;;;;;;;;;;;;;;8.74;84.11;97976.16;30001;983;1879;-61
2021/10/08 00:18:41;;;;;;;;;;;;;;;8.74;84.31;97972.63;30001;983;1884;-61
2021/10/08 00:19:12;;;;;;;;;;;;;;;8.74;84.43;97976.16;30001;983;1880;-61
2021/10/08 00:19:43;;;;;;;;;;;;;;;8.75;84.37;97968.84;30001;983;1884;-61
2021/10/08 00:20:14;;;;;;;;;;;;;;;8.74;83.96;97975.34;30001;983;1880;-60
2021/10/08 00:20:45;;;;;;;;;;;;;;;8.73;84.03;97974.53;30001;983;1858;-61
2021/10/08 00:21:16;;;;;;;;;;;;;;;8.73;84.13;97974.53;30001;983;1880;-61
2021/10/08 00:21:49;;;;;;;;;;;;;;;8.72;84.15;97972.87;30001;983;1884;-61
2021/10/08 00:22:20;;;;;;;;;;;;;;;8.71;84.36;97973.97;30001;983;1880;-61
2021/10/08 00:22:51;;;;;;;;;;;;;;;8.71;84.28;97968.53;30001;983;1884;-61
2021/10/08 00:23:21;;;;;;;;;;;;;;;8.68;84.70;97971.75;30001;982;1854;-62
2021/10/08 00:23:52;;;;;;;;;;;;;;;8.67;84.59;97980.94;30001;982;1885;-60
2021/10/08 00:24:23;;;;;;;;;;;;;;;8.65;84.84;97969.59;30001;982;1881;-61
2021/10/08 00:24:54;;;;;;;;;;;;;;;8.65;84.62;97969.59;30001;982;1885;-60
2021/10/08 00:25:25;;;;;;;;;;;;;;;8.64;84.86;97970.66;30001;982;1880;-60
2021/10/08 00:25:55;;;;;;;;;;;;;;;8.63;84.92;97969.03;30001;983;1857;-60
2021/10/08 00:26:26;;;;;;;;;;;;;;;8.62;84.81;97963.88;30001;983;1880;-61
2021/10/08 00:26:57;;;;;;;;;;;;;;;8.62;84.82;97971.97;30001;983;1884;-61
2021/10/08 00:27:28;;;;;;;;;;;;;;;8.61;85.01;97964.94;30001;983;1880;-60
2021/10/08 00:27:58;;;;;;;;;;;;;;;8.60;85.00;97974.94;30001;983;1884;-62
2021/10/08 00:28:29;;;;;;;;;;;;;;;8.58;84.97;97963.56;30001;983;1854;-60
2021/10/08 00:29:00;;;;;;;;;;;;;;;8.56;85.03;97968.41;30001;983;1884;-61
2021/10/08 00:29:31;;;;;;;;;;;;;;;8.55;85.12;97966.75;30001;983;1880;-61
2021/10/08 00:30:03;;;;;;;;;;;;;;;8.51;85.08;97968.34;30001;982;1885;-60
2021/10/08 00:30:34;;;;;;;;;;;;;;;8.50;85.34;97971.28;30001;982;1880;-61
2021/10/08 00:31:05;;;;;;;;;;;;;;;8.48;85.25;97966.13;30001;982;1885;-63
2021/10/08 00:31:36;;;;;;;;;;;;;;;8.46;85.29;97968.28;30001;982;1880;-60
2021/10/08 00:32:07;;;;;;;;;;;;;;;8.46;85.38;97970.97;30001;982;1884;-60
2021/10/08 00:32:38;;;;;;;;;;;;;;;8.42;85.46;97967.13;30001;982;1881;-61
2021/10/08 00:33:09;;;;;;;;;;;;;;;8.39;85.55;97967.63;30001;982;1885;-60
2021/10/08 00:33:40;;;;;;;;;;;;;;;8.38;86.06;97966.00;30001;983;1853;-60
2021/10/08 00:34:11;;;;;;;;;;;;;;;8.37;85.78;97967.06;30001;983;1884;-61
2021/10/08 00:34:42;;;;;;;;;;;;;;;8.35;86.26;97966.50;30001;983;1853;-62
2021/10/08 00:35:14;;;;;;;;;;;;;;;8.34;86.07;97964.88;30001;983;1884;-61
2021/10/08 00:35:45;;;;;;;;;;;;;;;8.35;85.96;97971.91;30001;983;1880;-59
2021/10/08 00:36:15;;;;;;;;;;;;;;;8.35;86.17;97967.31;30001;983;1884;-59
2021/10/08 00:36:46;;;;;;;;;;;;;;;8.35;85.77;97966.50;30001;983;1880;-60
2021/10/08 00:37:17;;;;;;;;;;;;;;;8.36;86.03;97968.16;30001;986;1884;-60
2021/10/08 00:37:50;;;;;;;;;;;;;;;8.36;86.02;97966.25;30001;982;1880;-61
2021/10/08 00:38:21;;;;;;;;;;;;;;;8.37;86.00;97958.97;30001;982;1885;-60
2021/10/08 00:38:53;;;;;;;;;;;;;;;8.37;85.50;97961.66;30001;982;1880;-61
2021/10/08 00:39:25;;;;;;;;;;;;;;;8.37;86.01;97953.56;30001;982;1858;-61
2021/10/08 00:39:56;;;;;;;;;;;;;;;8.36;85.74;97962.72;30001;982;1854;-61
2021/10/08 00:40:27;;;;;;;;;;;;;;;8.36;85.62;97957.31;30001;982;1885;-64
2021/10/08 00:40:58;;;;;;;;;;;;;;;8.34;86.07;97957.56;30001;983;1880;-61
2021/10/08 00:41:28;;;;;;;;;;;;;;;8.35;85.89;97966.50;30001;961;1906;-61
2021/10/08 00:42:00;;;;;;;;;;;;;;;8.35;85.64;97961.09;30001;983;1880;-61
2021/10/08 00:42:31;;;;;;;;;;;;;;;8.32;85.58;97961.56;30001;983;1884;-61
2021/10/08 00:43:03;;;;;;;;;;;;;;;8.29;85.73;97956.69;30001;983;1880;-60
2021/10/08 00:43:34;;;;;;;;;;;;;;;8.28;85.97;97960.47;30001;983;1858;-60
2021/10/08 00:44:05;;;;;;;;;;;;;;;8.26;86.12;97957.19;30001;983;1880;-61
2021/10/08 00:44:36;;;;;;;;;;;;;;;8.26;86.10;97954.50;30001;983;1884;-61
2021/10/08 00:45:07;;;;;;;;;;;;;;;8.24;86.23;97956.63;30001;982;1880;-60
2021/10/08 00:45:38;;;;;;;;;;;;;;;8.24;86.06;97959.34;30001;982;1885;-61
2021/10/08 00:46:09;;;;;;;;;;;;;;;8.23;85.95;97955.81;30001;982;1880;-61
2021/10/08 00:46:40;;;;;;;;;;;;;;;8.25;86.01;97960.97;30001;982;1884;-61
2021/10/08 00:47:12;;;;;;;;;;;;;;;8.24;85.78;97957.44;30001;982;1880;-60
2021/10/08 00:47:43;;;;;;;;;;;;;;;8.24;86.19;97959.34;30001;982;1885;-61
2021/10/08 00:48:14;;;;;;;;;;;;;;;8.22;86.27;97965.00;30001;982;1850;-61
2021/10/08 00:48:50;;;;;;;;;;;;;;;8.20;85.95;97959.00;30001;983;1853;-65
2021/10/08 00:49:21;;;;;;;;;;;;;;;8.19;86.24;97957.38;30001;983;1849;-63
2021/10/08 00:49:52;;;;;;;;;;;;;;;8.19;86.07;97962.78;30001;983;1880;-61
2021/10/08 00:50:23;;;;;;;;;;;;;;;8.19;86.02;97959.25;30001;983;1875;-61
2021/10/08 00:50:54;;;;;;;;;;;;;;;8.21;86.05;97960.66;30001;983;1880;-61
2021/10/08 00:51:25;;;;;;;;;;;;;;;8.20;86.16;97960.91;30001;983;1876;-60
2021/10/08 00:51:56;;;;;;;;;;;;;;;8.19;86.08;97951.16;30001;987;1789;-61
2021/10/08 00:52:27;;;;;;;;;;;;;;;8.20;86.05;97958.19;30001;983;1876;-60
2021/10/08 00:52:57;;;;;;;;;;;;;;;8.20;85.92;97963.59;30001;982;1880;-60
2021/10/08 00:53:28;;;;;;;;;;;;;;;8.19;85.79;97961.97;30001;982;1876;-65
2021/10/08 00:53:59;;;;;;;;;;;;;;;8.19;85.99;97956.56;30001;982;1880;-61
2021/10/08 00:54:30;;;;;;;;;;;;;;;8.18;85.93;97961.16;30001;982;1850;-61
2021/10/08 00:55:03;;;;;;;;;;;;;;;8.19;85.99;97956.56;30001;982;1880;-62
2021/10/08 00:55:35;;;;;;;;;;;;;;;8.20;85.79;97960.91;30001;983;1875;-61
2021/10/08 00:56:07;;;;;;;;;;;;;;;8.20;85.98;97952.78;30001;983;1880;-60
2021/10/08 00:56:39;;;;;;;;;;;;;;;8.16;85.89;97957.06;30001;983;1875;-61
2021/10/08 00:57:10;;;;;;;;;;;;;;;8.15;85.84;97960.84;30001;983;1880;-61
2021/10/08 00:57:42;;;;;;;;;;;;;;;8.14;85.84;97960.00;30001;983;1876;-60
2021/10/08 00:58:13;;;;;;;;;;;;;;;8.14;86.01;97953.78;30001;983;1880;-65
2021/10/08 00:58:44;;;;;;;;;;;;;;;8.14;85.85;97957.31;30001;983;1876;-61
2021/10/08 00:59:15;;;;;;;;;;;;;;;8.15;86.01;97952.72;30001;983;1880;-61
2021/10/08 00:59:46;;;;;;;;;;;;;;;8.14;86.08;97959.19;30001;983;1849;-61
2021/10/08 01:00:18;;;;;;;;;;;;;;;8.15;86.13;97960.84;30001;982;1880;-60
2021/10/08 01:00:50;;;;;;;;;;;;;;;8.14;85.88;97954.59;30001;982;1876;-60
2021/10/08 01:01:21;;;;;;;;;;;;;;;8.15;85.91;97950.03;30001;982;1880;-61
2021/10/08 01:01:52;;;;;;;;;;;;;;;8.13;85.87;97952.16;30001;982;1876;-61
2021/10/08 01:02:24;;;;;;;;;;;;;;;8.12;85.72;97950.50;30001;982;1854;-63
2021/10/08 01:02:55;;;;;;;;;;;;;;;8.11;86.01;97948.88;30001;983;1849;-60
2021/10/08 01:03:26;;;;;;;;;;;;;;;8.10;85.98;97947.25;30001;983;1879;-61
2021/10/08 01:03:57;;;;;;;;;;;;;;;8.11;86.02;97948.88;30001;983;1875;-60
2021/10/08 01:04:29;;;;;;;;;;;;;;;8.12;85.90;97950.50;30001;983;1880;-65
2021/10/08 01:05:00;;;;;;;;;;;;;;;8.12;85.69;97945.09;30001;983;1875;-61
2021/10/08 01:05:30;;;;;;;;;;;;;;;8.12;85.92;97945.09;30001;983;1880;-61
2021/10/08 01:06:02;;;;;;;;;;;;;;;8.12;85.50;97951.34;30001;983;1849;-61
2021/10/08 01:06:33;;;;;;;;;;;;;;;8.13;85.58;97946.75;30001;983;1880;-61
2021/10/08 01:07:04;;;;;;;;;;;;;;;8.12;85.74;97945.09;30001;983;1876;-61
2021/10/08 01:07:35;;;;;;;;;;;;;;;8.12;85.49;97945.09;30001;983;1854;-61
2021/10/08 01:08:06;;;;;;;;;;;;;;;8.11;85.65;97943.47;30001;982;1876;-61
2021/10/08 01:08:37;;;;;;;;;;;;;;;8.12;85.80;97940.53;30001;982;1880;-62
2021/10/08 01:09:10;;;;;;;;;;;;;;;8.13;85.53;97941.34;30001;982;1876;-60
2021/10/08 01:09:41;;;;;;;;;;;;;;;8.15;85.51;97944.59;30001;982;1880;-60
2021/10/08 01:10:12;;;;;;;;;;;;;;;8.15;85.57;97944.59;30001;983;1849;-60
2021/10/08 01:10:44;;;;;;;;;;;;;;;8.14;85.49;97942.97;30001;983;1880;-61
2021/10/08 01:11:19;;;;;;;;;;;;;;;8.13;85.52;97941.34;30001;983;1875;-61
2021/10/08 01:11:51;;;;;;;;;;;;;;;8.10;85.67;97939.12;30001;983;1879;-59
2021/10/08 01:12:22;;;;;;;;;;;;;;;8.04;85.75;97938.25;30001;983;1875;-61
2021/10/08 01:12:52;;;;;;;;;;;;;;;7.98;86.39;97934.66;30001;983;1880;-60
2021/10/08 01:13:23;;;;;;;;;;;;;;;7.97;86.10;97940.34;30001;983;1876;-64
2021/10/08 01:13:54;;;;;;;;;;;;;;;7.96;86.12;97942.22;30001;983;1854;-60
2021/10/08 01:14:25;;;;;;;;;;;;;;;7.93;86.20;97934.63;30001;983;1876;-60
2021/10/08 01:14:56;;;;;;;;;;;;;;;7.90;86.63;97943.22;30001;983;1880;-60
2021/10/08 01:15:27;;;;;;;;;;;;;;;7.87;86.69;97938.31;30001;982;1876;-60
2021/10/08 01:15:58;;;;;;;;;;;;;;;7.86;87.03;97942.09;30001;982;1880;-61
2021/10/08 01:16:30;;;;;;;;;;;;;;;7.83;87.07;97937.19;30001;982;1850;-61
2021/10/08 01:17:11;;;;;;;;;;;;;;;7.83;86.62;97942.59;30001;982;1880;-59
2021/10/08 01:17:41;;;;;;;;;;;;;;;7.86;87.05;97941.25;30001;986;1867;-60
2021/10/08 01:18:13;;;;;;;;;;;;;;;7.87;86.84;97945.59;30001;983;1880;-60
2021/10/08 01:18:46;;;;;;;;;;;;;;;7.88;86.58;97941.84;30001;983;1875;-61
2021/10/08 01:19:17;;;;;;;;;;;;;;;7.88;86.74;97945.34;30001;983;1880;-66
2021/10/08 01:19:48;;;;;;;;;;;;;;;7.91;86.65;97950.25;30001;983;1849;-59
2021/10/08 01:20:19;;;;;;;;;;;;;;;7.91;86.45;97944.84;30001;983;1880;-61
2021/10/08 01:20:50;;;;;;;;;;;;;;;7.92;86.22;97942.97;30001;983;1876;-61
2021/10/08 01:21:20;;;;;;;;;;;;;;;7.94;86.07;97943.53;30001;983;1880;-61
2021/10/08 01:21:53;;;;;;;;;;;;;;;7.94;86.20;97941.66;30001;983;1849;-61
2021/10/08 01:22:24;;;;;;;;;;;;;;;7.96;86.06;97947.62;30001;983;1880;-61
2021/10/08 01:22:58;;;;;;;;;;;;;;;7.96;85.70;97942.22;30001;982;1876;-61
2021/10/08 01:23:29;;;;;;;;;;;;;;;7.96;85.92;97944.94;30001;982;1880;-61
2021/10/08 01:23:59;;;;;;;;;;;;;;;7.95;85.71;97937.06;30001;982;1876;-60
2021/10/08 01:24:30;;;;;;;;;;;;;;;7.94;86.20;97940.84;30001;982;1880;-61
2021/10/08 01:25:02;;;;;;;;;;;;;;;7.94;86.14;97941.66;30001;982;1876;-62
2021/10/08 01:25:34;;;;;;;;;;;;;;;7.93;86.29;97942.72;30001;983;1879;-60
2021/10/08 01:26:05;;;;;;;;;;;;;;;7.89;86.06;97938.88;30001;983;1875;-59
2021/10/08 01:26:36;;;;;;;;;;;;;;;7.89;86.36;97943.47;30001;983;1879;-61
2021/10/08 01:27:08;;;;;;;;;;;;;;;7.88;86.45;97934.56;30001;983;1849;-61
2021/10/08 01:27:41;;;;;;;;;;;;;;;7.89;86.23;97938.06;30001;983;1880;-60
2021/10/08 01:28:11;;;;;;;;;;;;;;;7.88;86.20;97934.56;30001;983;1875;-60
2021/10/08 01:28:42;;;;;;;;;;;;;;;7.89;86.43;97936.19;30001;983;1880;-60
2021/10/08 01:29:14;;;;;;;;;;;;;;;7.89;86.19;97941.59;30001;983;1876;-61
2021/10/08 01:30:03;;;;;;;;;;;;;;;7.91;86.27;97941.34;30001;982;1880;-61
2021/10/08 01:30:34;;;;;;;;;;;;;;;7.90;86.29;97937.81;30001;982;1850;-61
2021/10/08 01:31:06;;;;;;;;;;;;;;;7.89;86.45;97933.47;30001;982;1880;-61
2021/10/08 01:31:37;;;;;;;;;;;;;;;7.85;86.92;97945.84;30001;982;1876;-63
2021/10/08 01:32:08;;;;;;;;;;;;;;;7.83;87.21;97937.19;30001;982;1881;-61
2021/10/08 01:32:39;;;;;;;;;;;;;;;7.82;87.09;97932.84;30001;982;1876;-60
2021/10/08 01:33:09;;;;;;;;;;;;;;;7.82;86.74;97932.84;30001;983;1879;-61
2021/10/08 01:33:40;;;;;;;;;;;;;;;7.82;86.69;97930.13;30001;983;1875;-60
2021/10/08 01:34:11;;;;;;;;;;;;;;;7.80;86.90;97932.28;30001;983;1853;-60
2021/10/08 01:34:42;;;;;;;;;;;;;;;7.77;87.24;97943.56;30001;983;1876;-60
2021/10/08 01:35:13;;;;;;;;;;;;;;;7.74;87.38;97938.66;30001;983;1880;-60
2021/10/08 01:35:44;;;;;;;;;;;;;;;7.73;87.11;97931.62;30001;983;1876;-61
2021/10/08 01:36:14;;;;;;;;;;;;;;;7.75;87.37;97940.31;30001;983;1880;-60
2021/10/08 01:36:46;;;;;;;;;;;;;;;7.76;87.14;97936.53;30001;983;1876;-60
2021/10/08 01:37:17;;;;;;;;;;;;;;;7.77;87.29;97938.16;30001;982;1880;-60
2021/10/08 01:37:49;;;;;;;;;;;;;;;7.77;86.93;97940.06;30001;982;1876;-64
2021/10/08 01:38:19;;;;;;;;;;;;;;;7.77;86.92;97932.75;30001;982;1880;-61
2021/10/08 01:38:50;;;;;;;;;;;;;;;7.76;87.21;97931.12;30001;982;1876;-61
2021/10/08 01:39:24;;;;;;;;;;;;;;;7.74;87.58;97939.47;30001;982;1854;-60
2021/10/08 01:39:55;;;;;;;;;;;;;;;7.73;87.20;97939.72;30001;982;1876;-60
2021/10/08 01:40:26;;;;;;;;;;;;;;;7.72;87.26;97938.09;30001;983;1880;-61
2021/10/08 01:40:57;;;;;;;;;;;;;;;7.72;87.06;97940.78;30001;983;1876;-61
2021/10/08 01:41:28;;;;;;;;;;;;;;;7.73;87.30;97939.72;30001;983;1879;-60
2021/10/08 01:41:59;;;;;;;;;;;;;;;7.73;87.18;97942.44;30001;983;1875;-61
2021/10/08 01:42:30;;;;;;;;;;;;;;;7.72;87.39;97940.78;30001;983;1880;-61
2021/10/08 01:43:01;;;;;;;;;;;;;;;7.71;87.30;97939.16;30001;983;1849;-59
2021/10/08 01:43:32;;;;;;;;;;;;;;;7.66;87.49;97937.19;30001;983;1880;-61
2021/10/08 01:44:03;;;;;;;;;;;;;;;7.63;87.38;97940.41;30001;983;1876;-61
2021/10/08 01:44:34;;;;;;;;;;;;;;;7.64;87.55;97933.09;30001;982;1880;-61
2021/10/08 01:45:06;;;;;;;;;;;;;;;7.64;87.47;97938.50;30001;982;1876;-62
2021/10/08 01:45:37;;;;;;;;;;;;;;;7.63;87.73;97934.19;30001;982;1880;-61
2021/10/08 01:46:08;;;;;;;;;;;;;;;7.64;87.37;97946.62;30001;982;1876;-60
2021/10/08 01:46:38;;;;;;;;;;;;;;;7.65;87.61;97937.44;30001;982;1880;-61
2021/10/08 01:47:09;;;;;;;;;;;;;;;7.65;87.36;97940.16;30001;982;1876;-60
2021/10/08 01:47:40;;;;;;;;;;;;;;;7.65;87.60;97940.16;30001;960;1876;-60
2021/10/08 01:48:10;;;;;;;;;;;;;;;7.66;87.26;97941.78;30001;983;1875;-61
2021/10/08 01:48:41;;;;;;;;;;;;;;;7.69;87.36;97936.72;30001;983;1880;-61
2021/10/08 01:49:12;;;;;;;;;;;;;;;7.70;87.23;97940.22;30001;983;1875;-61
2021/10/08 01:49:43;;;;;;;;;;;;;;;7.70;87.42;97937.53;30001;983;1880;-60
2021/10/08 01:50:14;;;;;;;;;;;;;;;7.69;87.24;97936.72;30001;983;1876;-61
2021/10/08 01:50:45;;;;;;;;;;;;;;;7.69;87.19;97946.69;30001;983;1880;-65
2021/10/08 01:51:15;;;;;;;;;;;;;;;7.69;87.29;97936.72;30001;983;1876;-61
2021/10/08 01:51:46;;;;;;;;;;;;;;;7.70;87.45;97937.53;30001;983;1880;-60
2021/10/08 01:52:17;;;;;;;;;;;;;;;7.70;87.26;97942.94;30001;982;1849;-60
2021/10/08 01:52:48;;;;;;;;;;;;;;;7.70;87.58;97942.94;30001;982;1880;-59
2021/10/08 01:53:19;;;;;;;;;;;;;;;7.70;87.37;97937.53;30001;982;1876;-61
2021/10/08 01:53:50;;;;;;;;;;;;;;;7.68;87.84;97935.06;30001;982;1880;-61
2021/10/08 01:54:22;;;;;;;;;;;;;;;7.67;87.68;97940.72;30001;982;1850;-60
2021/10/08 01:54:53;;;;;;;;;;;;;;;7.69;88.02;97938.59;30001;982;1881;-61
2021/10/08 01:55:24;;;;;;;;;;;;;;;7.70;87.58;97935.63;30001;982;1850;-61
2021/10/08 01:55:55;;;;;;;;;;;;;;;7.71;87.87;97931.88;30001;986;1880;-60
2021/10/08 01:56:29;;;;;;;;;;;;;;;7.71;87.64;97939.16;30001;983;1875;-60
2021/10/08 01:56:59;;;;;;;;;;;;;;;7.72;87.57;97938.09;30001;983;1880;-61
2021/10/08 01:57:30;;;;;;;;;;;;;;;7.70;87.25;97934.81;30001;983;1875;-60
2021/10/08 01:58:01;;;;;;;;;;;;;;;7.69;87.49;97935.87;30001;983;1880;-59
2021/10/08 01:58:32;;;;;;;;;;;;;;;7.69;87.32;97936.72;30001;983;1876;-60
2021/10/08 01:59:03;;;;;;;;;;;;;;;7.67;87.26;97938.84;30001;983;1854;-61
2021/10/08 01:59:34;;;;;;;;;;;;;;;7.65;87.52;97937.44;30001;965;1794;-61
2021/10/08 02:00:05;;;;;;;;;;;;;;;7.62;87.75;97937.97;30001;982;1880;-60
2021/10/08 02:00:36;;;;;;;;;;;;;;;7.60;87.83;97932.00;30001;982;1876;-61
2021/10/08 02:01:07;;;;;;;;;;;;;;;7.59;87.92;97927.66;30001;982;1880;-61
2021/10/08 02:01:38;;;;;;;;;;;;;;;7.58;87.75;97928.72;30001;982;1876;-60
2021/10/08 02:02:10;;;;;;;;;;;;;;;7.57;88.07;97936.00;30001;982;1880;-60
2021/10/08 02:02:41;;;;;;;;;;;;;;;7.58;87.73;97931.44;30001;983;1875;-60
2021/10/08 02:03:12;;;;;;;;;;;;;;;7.59;87.71;97933.06;30001;983;1880;-60
2021/10/08 02:03:46;;;;;;;;;;;;;;;7.59;88.03;97931.19;30001;983;1849;-66
2021/10/08 02:04:17;;;;;;;;;;;;;;;7.60;87.66;97932.00;30001;983;1880;-61
2021/10/08 02:04:48;;;;;;;;;;;;;;;7.58;87.61;97921.44;30001;983;1876;-61
2021/10/08 02:05:19;;;;;;;;;;;;;;;7.58;87.92;97929.53;30001;983;1880;-60
2021/10/08 02:05:50;;;;;;;;;;;;;;;7.58;87.55;97934.13;30001;983;1850;-62
2021/10/08 02:06:20;;;;;;;;;;;;;;;7.60;87.65;97932.00;30001;983;1880;-62
2021/10/08 02:06:51;;;;;;;;;;;;;;;7.62;87.75;97929.88;30001;983;1876;-61
2021/10/08 02:07:22;;;;;;;;;;;;;;;7.61;87.28;97929.06;30001;982;1854;-61
2021/10/08 02:07:53;;;;;;;;;;;;;;;7.62;87.34;97927.16;30001;982;1876;-61
2021/10/08 02:08:24;;;;;;;;;;;;;;;7.59;87.58;97927.66;30001;982;1880;-61
2021/10/08 02:08:55;;;;;;;;;;;;;;;7.55;87.66;97927.34;30001;982;1876;-61
2021/10/08 02:09:25;;;;;;;;;;;;;;;7.51;88.17;97923.50;30001;982;1880;-61
2021/10/08 02:09:56;;;;;;;;;;;;;;;7.50;87.87;97937.25;30001;983;1875;-60
2021/10/08 02:10:28;;;;;;;;;;;;;;;7.48;88.09;97934.78;30001;983;1853;-61
2021/10/08 02:10:59;;;;;;;;;;;;;;;7.47;87.94;97935.03;30001;983;1875;-60
2021/10/08 02:11:30;;;;;;;;;;;;;;;7.48;88.25;97933.97;30001;983;1880;-61
2021/10/08 02:12:01;;;;;;;;;;;;;;;7.46;88.12;97936.91;30001;983;1875;-61
2021/10/08 02:12:32;;;;;;;;;;;;;;;7.46;88.33;97925.28;30001;983;1880;-60
2021/10/08 02:13:03;;;;;;;;;;;;;;;7.46;88.07;97930.69;30001;983;1875;-61
2021/10/08 02:13:34;;;;;;;;;;;;;;;7.47;88.08;97924.22;30001;983;1880;-60
2021/10/08 02:14:05;;;;;;;;;;;;;;;7.45;87.95;97929.88;30001;983;1876;-61
2021/10/08 02:14:35;;;;;;;;;;;;;;;7.44;88.23;97932.81;30001;983;1880;-60
2021/10/08 02:15:07;;;;;;;;;;;;;;;7.44;88.07;97927.44;30001;982;1876;-61
2021/10/08 02:15:37;;;;;;;;;;;;;;;7.44;88.12;97932.81;30001;982;1854;-61
2021/10/08 02:16:08;;;;;;;;;;;;;;;7.43;88.08;97928.50;30001;982;1876;-61
2021/10/08 02:16:39;;;;;;;;;;;;;;;7.40;88.19;97933.31;30001;982;1880;-61
2021/10/08 02:17:10;;;;;;;;;;;;;;;7.39;88.20;97930.84;30001;982;1876;-61
2021/10/08 02:17:41;;;;;;;;;;;;;;;7.42;88.47;97934.94;30001;983;1879;-61
2021/10/08 02:18:12;;;;;;;;;;;;;;;7.44;88.30;97932.81;30001;983;1849;-61
2021/10/08 02:18:43;;;;;;;;;;;;;;;7.44;88.09;97933.63;30001;983;1879;-61
2021/10/08 02:19:14;;;;;;;;;;;;;;;7.45;88.12;97931.75;30001;983;1875;-61
2021/10/08 02:19:44;;;;;;;;;;;;;;;7.41;88.18;97936.84;30001;983;1880;-61
2021/10/08 02:20:15;;;;;;;;;;;;;;;7.39;88.14;97937.09;30001;983;1876;-61
2021/10/08 02:20:46;;;;;;;;;;;;;;;7.39;88.12;97937.09;30001;983;1854;-61
2021/10/08 02:21:20;;;;;;;;;;;;;;;7.40;88.38;97940.59;30001;983;1876;-60
2021/10/08 02:21:51;;;;;;;;;;;;;;;7.40;88.29;97941.41;30001;983;1880;-61
2021/10/08 02:22:21;;;;;;;;;;;;;;;7.40;88.43;97937.91;30001;982;1876;-61
2021/10/08 02:22:52;;;;;;;;;;;;;;;7.40;88.17;97938.72;30001;982;1854;-60
2021/10/08 02:23:23;;;;;;;;;;;;;;;7.39;88.31;97937.09;30001;982;1850;-63
2021/10/08 02:23:54;;;;;;;;;;;;;;;7.39;88.39;97941.66;30001;982;1854;-61
2021/10/08 02:24:25;;;;;;;;;;;;;;;7.37;88.36;97933.00;30001;982;1876;-60
2021/10/08 02:24:56;;;;;;;;;;;;;;;7.37;88.46;97941.91;30001;983;1879;-60
2021/10/08 02:25:26;;;;;;;;;;;;;;;7.38;88.21;97934.63;30001;983;1875;-61
2021/10/08 02:25:57;;;;;;;;;;;;;;;7.37;88.34;97939.22;30001;983;1880;-62
2021/10/08 02:26:28;;;;;;;;;;;;;;;7.37;87.98;97939.22;30001;983;1876;-60
2021/10/08 02:26:59;;;;;;;;;;;;;;;7.39;88.36;97945.19;30001;983;1880;-61
2021/10/08 02:27:30;;;;;;;;;;;;;;;7.38;88.55;97940.03;30001;983;1876;-60
2021/10/08 02:28:00;;;;;;;;;;;;;;;7.35;89.01;97941.34;30001;983;1880;-61
2021/10/08 02:28:31;;;;;;;;;;;;;;;7.34;88.73;97936.19;30001;983;1876;-61
2021/10/08 02:29:02;;;;;;;;;;;;;;;7.34;88.87;97933.47;30001;983;1854;-61
2021/10/08 02:29:33;;;;;;;;;;;;;;;7.34;88.79;97933.47;30001;983;1876;-61
2021/10/08 02:30:05;;;;;;;;;;;;;;;7.34;89.01;97938.88;30001;982;1880;-59
2021/10/08 02:30:36;;;;;;;;;;;;;;;7.33;89.16;97943.47;30001;982;1876;-60
2021/10/08 02:31:07;;;;;;;;;;;;;;;7.31;89.24;97932.09;30001;982;1880;-59
2021/10/08 02:31:38;;;;;;;;;;;;;;;7.29;89.25;97931.50;30001;982;1876;-65
2021/10/08 02:32:09;;;;;;;;;;;;;;;7.31;89.22;97933.97;30001;982;1880;-58
2021/10/08 02:32:40;;;;;;;;;;;;;;;7.32;88.92;97939.12;30001;983;1875;-63
2021/10/08 02:33:11;;;;;;;;;;;;;;;7.33;89.05;97932.66;30001;983;1853;-60
2021/10/08 02:33:43;;;;;;;;;;;;;;;7.33;89.14;97932.66;30001;985;1867;-60
2021/10/08 02:34:14;;;;;;;;;;;;;;;7.33;88.83;97932.66;30001;983;1880;-60
2021/10/08 02:34:45;;;;;;;;;;;;;;;7.32;88.64;97932.91;30001;983;1875;-59
2021/10/08 02:35:16;;;;;;;;;;;;;;;7.34;88.73;97934.31;30001;983;1854;-60
2021/10/08 02:35:47;;;;;;;;;;;;;;;7.36;88.62;97931.34;30001;983;1876;-60
2021/10/08 02:36:17;;;;;;;;;;;;;;;7.37;88.54;97928.41;30001;983;1880;-60
2021/10/08 02:36:48;;;;;;;;;;;;;;;7.37;88.74;97933.81;30001;982;1876;-60
2021/10/08 02:37:19;;;;;;;;;;;;;;;7.37;88.81;97936.50;30001;982;1880;-60
2021/10/08 02:37:50;;;;;;;;;;;;;;;7.37;88.69;97936.50;30001;982;1876;-60
2021/10/08 02:38:21;;;;;;;;;;;;;;;7.38;88.42;97930.03;30001;982;1854;-60
2021/10/08 02:38:51;;;;;;;;;;;;;;;7.38;88.46;97935.44;30001;982;1876;-60
2021/10/08 02:39:23;;;;;;;;;;;;;;;7.37;88.78;97944.59;30001;982;1881;-60
2021/10/08 02:39:53;;;;;;;;;;;;;;;7.37;88.59;97933.00;30001;982;1876;-60
2021/10/08 02:40:24;;;;;;;;;;;;;;;7.33;89.31;97937.25;30001;983;1879;-61
2021/10/08 02:40:55;;;;;;;;;;;;;;;7.30;88.81;97933.16;30001;986;1875;-61
2021/10/08 02:41:26;;;;;;;;;;;;;;;7.31;89.36;97937.50;30001;983;1880;-60
2021/10/08 02:41:57;;;;;;;;;;;;;;;7.31;89.06;97929.38;30001;983;1849;-60
2021/10/08 02:42:27;;;;;;;;;;;;;;;7.30;89.19;97927.75;30001;983;1880;-59
2021/10/08 02:42:58;;;;;;;;;;;;;;;7.31;89.07;97933.97;30001;983;1875;-60
2021/10/08 02:43:29;;;;;;;;;;;;;;;7.31;89.03;97934.78;30001;983;1880;-61
2021/10/08 02:44:00;;;;;;;;;;;;;;;7.31;88.87;97934.78;30001;983;1876;-60
2021/10/08 02:44:32;;;;;;;;;;;;;;;7.30;88.83;97933.16;30001;982;1880;-59
2021/10/08 02:45:03;;;;;;;;;;;;;;;7.30;88.62;97933.16;30001;970;1862;-60
2021/10/08 02:45:34;;;;;;;;;;;;;;;7.30;88.87;97933.16;30001;982;1880;-61
2021/10/08 02:46:06;;;;;;;;;;;;;;;7.31;88.72;97928.56;30001;982;1876;-60
2021/10/08 02:46:37;;;;;;;;;;;;;;;7.30;88.80;97935.84;30001;982;1880;-60
2021/10/08 02:47:08;;;;;;;;;;;;;;;7.29;88.63;97931.50;30001;982;1876;-59
2021/10/08 02:47:39;;;;;;;;;;;;;;;7.31;88.79;97940.19;30001;983;1879;-58
2021/10/08 02:48:10;;;;;;;;;;;;;;;7.31;89.00;97934.78;30001;983;1849;-60
2021/10/08 02:48:41;;;;;;;;;;;;;;;7.29;88.80;97930.69;30001;983;1880;-60